Airfield :
LOGIN :

Register | Disclaimer

   EN    FR    IT 

 










Legend :    VFR   Marginal VFR   IFR   Intensive IFR   Very Intensive IFR
Visi :
Ceiling :
>= 8 km
>= 3000ft
5 to 8 km
1000 to 3000 ft
1500m to 5 km
500 to 1000 ft
800 to 1500m
200 to 500 ft
< 800m
< 200 ft
Symbols :   Thunderstorms  Fog  Heavy snow  Heavy precipitations  Wind > 20 kt
SIGMETs :     Misc.  Thunderstorms  Icing  Turbulence  Mountain Waves  Volcanic Ashes






- Airport Elevation : 15 ft
- IATA code : GIB


LXGB - Gibraltar

CURRENT METAR :
  • 261450Z AUTO 20010KT 9999 BKN060/// 16/06 Q1007

EXPIRED METARs :
  • 261350Z 20008KT 9999 FEW025 BKN060 BKN090 15/08 Q1008 NOSIG RMK BLU BLU
  • 261328Z 19008KT 9999 FEW025 BKN050 BKN090 15/07 Q1008 NOSIG RMK BLU BLU
  • 261250Z 19008G19KT 9999 FEW020 BKN060 BKN090 16/07 Q1008 NOSIG RMK BLU BLU

TAF TAF LXGB
Valid from the 26 at 12:00 until the 26 at 21:00 UTC


261033Z 2612/2621 22010KT 9999 BKN040
TEMPO 2612/2621 7000 -SHRA BKN020
PROB40
TEMPO 2612/2618 3000 +SHRA FEW010 BKN018CB
PROB30
TEMPO 2618/2621 3000 TSGS FEW010 BKN014CB



MET'MAP, your aeronautical weather chart ! - Copyright ORBIFLY December 2007 - Disclaimer

ORBIFLY MET'MAP TEAM :

Programming & Development : Alexandra Zaïnal
Concept & original design : Baudouin d'Aumeries
Assistance for programming : Marc-Olivier Méhu
Technical & hardware support : Manuel Goepfert

Contact : metmap@orbifly.com




SOURCES & CREDITS :

   NOAA